Time;durP1;ratioP1;P1;durP2;ratioP2;P2;SDS_P1;SDS_P2;PMS_P1;PMS_P2;Temp;Humidity;BMP_temperature;BMP_pressure;BME280_temperature;BME280_humidity;BME280_pressure;Samples;Min_cycle;Max_cycle;Signal;HPM_P1;HPM_P2
2023/09/13 00:00:24;;;;;;;9.02;5.32;;;;;;;18.60;100.00;100728.34;5008470;28;20026;-61
2023/09/13 00:02:49;;;;;;;7.20;5.30;;;;;;;18.60;100.00;100731.81;5007044;28;20516;-61
2023/09/13 00:05:14;;;;;;;6.95;5.10;;;;;;;18.61;100.00;100730.88;5010226;28;20029;-61
2023/09/13 00:07:40;;;;;;;7.82;6.88;;;;;;;18.64;100.00;100732.56;5007201;28;20082;-60
2023/09/13 00:10:05;;;;;;;9.00;6.43;;;;;;;18.65;100.00;100735.09;5009436;28;20041;-61
2023/09/13 00:12:31;;;;;;;9.48;6.43;;;;;;;18.68;100.00;100731.47;5006953;28;20133;-62
2023/09/13 00:14:56;;;;;;;12.13;7.57;;;;;;;18.68;100.00;100737.56;5008871;28;20089;-61
2023/09/13 00:17:23;;;;;;;12.93;7.57;;;;;;;18.68;100.00;100734.97;4992760;28;20037;-61
2023/09/13 00:19:49;;;;;;;13.27;8.18;;;;;;;18.71;100.00;100733.97;5009411;28;20088;-61
2023/09/13 00:22:14;;;;;;;12.70;8.85;;;;;;;18.71;100.00;100737.44;5006207;28;20042;-61
2023/09/13 00:24:39;;;;;;;12.40;8.43;;;;;;;18.72;100.00;100733.94;4992452;28;20030;-61
2023/09/13 00:27:05;;;;;;;16.58;9.27;;;;;;;18.73;100.00;100738.22;5009577;28;20097;-61
2023/09/13 00:29:33;;;;;;;17.02;10.65;;;;;;;18.74;100.00;100741.69;5006770;28;20026;-61
2023/09/13 00:32:01;;;;;;;16.77;10.70;;;;;;;18.73;100.00;100734.78;5007070;28;20037;-60
2023/09/13 00:34:27;;;;;;;19.10;11.00;;;;;;;18.70;100.00;100733.13;5009622;28;20072;-60
2023/09/13 00:36:52;;;;;;;15.55;10.65;;;;;;;18.69;100.00;100730.56;5009656;28;20030;-63
2023/09/13 00:39:18;;;;;;;18.08;11.60;;;;;;;18.68;100.00;100731.47;5008293;28;20069;-63
2023/09/13 00:41:43;;;;;;;16.58;12.05;;;;;;;18.69;100.00;100733.19;5006873;28;20041;-63
2023/09/13 00:44:09;;;;;;;16.73;10.90;;;;;;;18.70;100.00;100740.16;5005553;28;20031;-63
2023/09/13 00:46:35;;;;;;;22.10;13.35;;;;;;;18.72;100.00;100743.53;5006620;28;20455;-63
2023/09/13 00:49:01;;;;;;;20.40;12.63;;;;;;;18.72;100.00;100744.41;5006162;28;20508;-65
2023/09/13 00:51:27;;;;;;;20.40;13.00;;;;;;;18.72;100.00;100744.41;5009227;28;20032;-65
2023/09/13 00:53:53;;;;;;;20.27;12.88;;;;;;;18.75;100.00;100744.28;5007856;28;20128;-60
2023/09/13 00:56:18;;;;;;;19.40;10.95;;;;;;;18.77;100.00;100738.94;5006223;28;20506;-60
2023/09/13 00:58:47;;;;;;;16.20;11.68;;;;;;;18.78;100.00;100749.38;5009220;28;20041;-60
2023/09/13 01:01:13;;;;;;;24.65;14.95;;;;;;;18.79;100.00;100751.06;5007982;28;20586;-60
2023/09/13 01:03:39;;;;;;;26.42;14.57;;;;;;;18.81;100.00;100749.25;5006032;28;20025;-65
2023/09/13 01:06:05;;;;;;;23.13;14.88;;;;;;;18.84;100.00;100756.13;5009259;28;20053;-65
2023/09/13 01:08:31;;;;;;;30.13;17.08;;;;;;;18.83;100.00;100746.56;5006168;28;20057;-65
2023/09/13 01:10:57;;;;;;;25.40;16.20;;;;;;;18.83;100.00;100749.16;5005100;28;20046;-65
2023/09/13 01:13:22;;;;;;;28.58;17.27;;;;;;;18.84;100.00;100758.75;5005778;28;20453;-65
2023/09/13 01:16:09;;;;;;;28.30;17.60;;;;;;;18.84;100.00;100758.75;5006107;28;20564;-65
2023/09/13 01:18:47;;;;;;;25.42;16.15;;;;;;;18.86;100.00;100759.56;5008949;28;20025;-65
2023/09/13 01:21:18;;;;;;;24.42;15.77;;;;;;;18.86;100.00;100767.41;5004109;28;20100;-65
2023/09/13 01:24:11;;;;;;;30.35;15.73;;;;;;;18.84;100.00;100772.72;5007660;28;20052;-65
2023/09/13 01:26:59;;;;;;;27.35;16.70;;;;;;;18.85;100.00;100768.34;5008130;28;20166;-65
2023/09/13 01:29:25;;;;;;;24.52;16.40;;;;;;;18.85;100.00;100770.97;5008111;28;20045;-65
2023/09/13 01:31:51;;;;;;;32.53;17.98;;;;;;;18.85;100.00;100757.88;5008352;28;20041;-65
2023/09/13 01:34:16;;;;;;;26.65;16.42;;;;;;;18.84;100.00;100758.75;5003509;28;20038;-65
2023/09/13 01:36:42;;;;;;;27.80;17.48;;;;;;;18.82;100.00;100756.16;5007350;28;20249;-65
2023/09/13 01:39:07;;;;;;;29.95;17.95;;;;;;;18.79;100.00;100761.53;5006302;28;20032;-65
2023/09/13 01:42:13;;;;;;;24.25;15.75;;;;;;;18.80;100.00;100759.78;5005935;28;20254;-65
2023/09/13 01:44:42;;;;;;;29.25;16.88;;;;;;;18.81;100.00;100764.09;5001179;28;20038;-64
2023/09/13 01:47:08;;;;;;;29.55;17.65;;;;;;;18.80;100.00;100755.41;4991122;28;20463;-65
2023/09/13 01:49:36;;;;;;;29.40;17.83;;;;;;;18.79;100.00;100766.78;4990799;28;20030;-65
2023/09/13 01:52:05;;;;;;;26.90;17.80;;;;;;;18.80;100.00;100763.25;5005178;28;20107;-65
2023/09/13 01:54:34;;;;;;;27.05;17.30;;;;;;;18.82;100.00;100764.03;5005338;28;20049;-62
2023/09/13 01:57:00;;;;;;;23.65;15.95;;;;;;;18.84;100.00;100772.72;5006400;28;20111;-60
2023/09/13 01:59:25;;;;;;;23.15;15.27;;;;;;;18.84;100.00;100770.09;5004259;28;20065;-60
2023/09/13 02:01:50;;;;;;;28.98;16.70;;;;;;;18.84;100.00;100775.34;5007618;28;20140;-61
2023/09/13 02:04:16;;;;;;;27.08;16.70;;;;;;;18.85;100.00;100773.59;5006062;28;20101;-61
2023/09/13 02:06:41;;;;;;;29.55;18.15;;;;;;;18.86;100.00;100775.25;5008003;28;20618;-60
2023/09/13 02:09:06;;;;;;;27.75;16.98;;;;;;;18.86;100.00;100778.75;5004732;28;20033;-61
2023/09/13 02:11:32;;;;;;;24.30;17.33;;;;;;;18.87;100.00;100775.22;5005395;28;20165;-61
2023/09/13 02:13:57;;;;;;;29.88;18.70;;;;;;;18.88;100.00;100786.50;5006684;28;20096;-60
2023/09/13 02:16:23;;;;;;;26.40;17.55;;;;;;;18.89;100.00;100788.22;5005110;28;20034;-61
2023/09/13 02:18:48;;;;;;;28.20;18.35;;;;;;;18.89;100.00;100781.22;5005894;28;20069;-61
2023/09/13 02:21:14;;;;;;;30.75;17.67;;;;;;;18.91;100.00;100795.09;5005645;28;20041;-60
2023/09/13 02:23:41;;;;;;;28.63;17.55;;;;;;;18.92;100.00;100795.97;5004832;28;20637;-61
2023/09/13 02:26:08;;;;;;;35.65;19.45;;;;;;;18.92;100.00;100799.44;5005230;28;20061;-61
2023/09/13 02:28:33;;;;;;;28.27;15.90;;;;;;;18.94;100.00;100802.84;5007733;28;20044;-60
2023/09/13 02:30:59;;;;;;;29.67;18.58;;;;;;;18.96;100.00;100802.78;5002818;28;20034;-61
2023/09/13 02:33:24;;;;;;;27.05;16.25;;;;;;;18.95;100.00;100801.94;5003697;28;20030;-60
2023/09/13 02:35:49;;;;;;;30.92;18.27;;;;;;;18.97;100.00;100794.00;5006281;28;20461;-61
2023/09/13 02:38:15;;;;;;;28.92;17.63;;;;;;;18.99;100.00;100792.19;5004922;28;20089;-60
2023/09/13 02:40:40;;;;;;;28.77;18.98;;;;;;;19.00;100.00;100799.09;5007834;28;20029;-60
2023/09/13 02:43:05;;;;;;;25.45;16.30;;;;;;;18.98;100.00;100793.94;4987048;28;20543;-60
2023/09/13 02:45:31;;;;;;;26.10;18.00;;;;;;;18.99;100.00;100808.75;5007706;28;20026;-61
2023/09/13 02:47:56;;;;;;;33.70;19.95;;;;;;;18.98;100.00;100806.19;4993217;28;20032;-61
2023/09/13 02:50:21;;;;;;;32.05;19.60;;;;;;;18.98;100.00;100809.66;5007410;28;20045;-60
2023/09/13 02:52:47;;;;;;;31.77;19.75;;;;;;;19.00;100.00;100817.44;5011180;28;20034;-60
2023/09/13 02:55:12;;;;;;;24.48;16.65;;;;;;;19.01;100.00;100820.00;5009720;28;20037;-60
2023/09/13 02:57:38;;;;;;;30.42;19.85;;;;;;;18.99;100.00;100816.63;5011191;28;20026;-60
2023/09/13 03:00:05;;;;;;;31.08;19.42;;;;;;;19.00;100.00;100814.81;5008360;28;20125;-60
2023/09/13 03:02:31;;;;;;;35.38;21.05;;;;;;;19.02;100.00;100818.25;5011129;28;20038;-60
2023/09/13 03:04:56;;;;;;;32.13;19.80;;;;;;;19.02;100.00;100811.25;4990956;28;20385;-60
2023/09/13 03:07:22;;;;;;;29.80;19.42;;;;;;;19.02;100.00;100806.00;5011735;28;20037;-60
2023/09/13 03:09:54;;;;;;;26.95;17.40;;;;;;;19.01;100.00;100812.16;5009268;28;20045;-60
2023/09/13 03:12:20;;;;;;;26.35;17.05;;;;;;;19.02;100.00;100818.25;5006968;28;20029;-60
2023/09/13 03:14:45;;;;;;;30.58;18.88;;;;;;;19.02;100.00;100823.50;5009778;28;20042;-60
2023/09/13 03:17:13;;;;;;;31.45;19.85;;;;;;;19.03;100.00;100819.94;5006415;28;20034;-61
2023/09/13 03:19:39;;;;;;;35.85;21.50;;;;;;;19.03;100.00;100818.16;5008390;28;20034;-61
2023/09/13 03:22:05;;;;;;;35.30;21.20;;;;;;;19.04;100.00;100816.41;5011376;28;20038;-61
2023/09/13 03:24:30;;;;;;;31.33;19.77;;;;;;;19.06;100.00;100815.41;5008780;28;20022;-61
2023/09/13 03:26:56;;;;;;;34.42;21.63;;;;;;;19.06;100.00;100818.03;5010619;28;20152;-65
2023/09/13 03:29:21;;;;;;;31.77;20.00;;;;;;;19.06;100.00;100815.41;5008920;28;20666;-65
2023/09/13 03:31:47;;;;;;;30.45;20.10;;;;;;;19.06;100.00;100809.31;5008146;28;20042;-65
2023/09/13 03:34:12;;;;;;;36.90;22.40;;;;;;;19.06;100.00;100810.19;5008253;28;20045;-65
2023/09/13 03:36:38;;;;;;;32.70;20.55;;;;;;;19.06;100.00;100810.19;5009495;28;20033;-65
2023/09/13 03:39:04;;;;;;;33.97;21.65;;;;;;;19.05;100.00;100813.75;5008898;28;20647;-65
2023/09/13 03:41:29;;;;;;;41.72;24.70;;;;;;;19.06;100.00;100812.78;5008280;28;20030;-65
2023/09/13 03:43:54;;;;;;;37.58;22.73;;;;;;;19.06;100.00;100807.56;5007814;28;20121;-65
2023/09/13 03:46:20;;;;;;;41.55;25.02;;;;;;;19.06;100.00;100812.78;4993813;28;20033;-65
2023/09/13 03:48:46;;;;;;;39.15;22.98;;;;;;;19.09;100.00;100811.00;5008136;28;20567;-65
2023/09/13 03:51:11;;;;;;;45.85;25.65;;;;;;;19.09;100.00;100816.22;5008329;28;20026;-65
2023/09/13 03:53:37;;;;;;;44.97;26.35;;;;;;;19.10;100.00;100812.66;5010235;28;20037;-65
2023/09/13 03:56:03;;;;;;;49.30;28.33;;;;;;;19.12;100.00;100813.47;4993967;28;20038;-66
2023/09/13 03:58:28;;;;;;;57.38;31.70;;;;;;;19.12;100.00;100808.25;4996581;28;20122;-65
2023/09/13 04:00:54;;;;;;;49.15;28.27;;;;;;;19.11;100.00;100810.00;5009474;28;20042;-65
2023/09/13 04:03:20;;;;;;;55.05;29.80;;;;;;;19.12;100.00;100808.25;5008315;28;20026;-65
2023/09/13 04:05:46;;;;;;;65.85;35.13;;;;;;;19.11;100.00;100811.75;5009040;28;20041;-65
2023/09/13 04:08:11;;;;;;;63.75;33.97;;;;;;;19.10;100.00;100807.44;5007717;28;20036;-65
2023/09/13 04:10:37;;;;;;;67.18;35.35;;;;;;;19.08;100.00;100807.50;5009887;28;20044;-65
2023/09/13 04:13:02;;;;;;;64.63;35.30;;;;;;;19.07;100.00;100798.78;5006434;28;20092;-65
2023/09/13 04:15:28;;;;;;;62.55;36.17;;;;;;;19.08;100.00;100802.28;4993075;28;20520;-65
2023/09/13 04:17:53;;;;;;;60.53;33.65;;;;;;;19.06;100.00;100804.94;5010106;28;20121;-65
2023/09/13 04:20:19;;;;;;;65.53;35.17;;;;;;;19.07;100.00;100808.41;5007544;28;20061;-64
2023/09/13 04:22:45;;;;;;;64.80;35.20;;;;;;;19.08;100.00;100818.00;5010163;28;20092;-60
2023/09/13 04:25:11;;;;;;;66.55;34.80;;;;;;;19.10;100.00;100812.66;5007663;28;20492;-60
2023/09/13 04:27:36;;;;;;;61.88;34.08;;;;;;;19.10;100.00;100820.53;5009744;28;20026;-61
2023/09/13 04:30:02;;;;;;;67.47;35.83;;;;;;;19.10;100.00;100828.38;5006455;28;20029;-60
2023/09/13 04:32:27;;;;;;;72.15;38.60;;;;;;;19.10;100.00;100824.00;4991695;28;20459;-61
2023/09/13 04:34:53;;;;;;;70.10;38.35;;;;;;;19.13;100.00;100823.03;5007152;28;20041;-61
2023/09/13 04:37:20;;;;;;;70.82;36.78;;;;;;;19.12;100.00;100826.56;5009923;28;20029;-62
2023/09/13 04:39:45;;;;;;;63.63;35.33;;;;;;;19.14;100.00;100830.84;5007804;28;20230;-62
2023/09/13 04:42:11;;;;;;;71.85;38.83;;;;;;;19.12;100.00;100822.16;5005289;28;20464;-60
2023/09/13 04:44:37;;;;;;;64.43;35.63;;;;;;;19.14;100.00;100822.13;5009135;28;20243;-60
2023/09/13 04:47:02;;;;;;;70.10;38.38;;;;;;;19.14;100.00;100825.59;5009469;28;20030;-60
2023/09/13 04:49:28;;;;;;;78.45;42.05;;;;;;;19.13;100.00;100825.66;5007026;28;20045;-60
2023/09/13 04:51:54;;;;;;;70.65;39.45;;;;;;;19.14;100.00;100833.44;5005803;28;20408;-60
2023/09/13 04:54:22;;;;;;;76.90;40.97;;;;;;;19.14;100.00;100829.97;4989979;28;20070;-60
2023/09/13 04:56:48;;;;;;;72.90;39.92;;;;;;;19.16;100.00;100836.00;5007683;28;20117;-60
2023/09/13 04:59:14;;;;;;;73.43;39.67;;;;;;;19.19;100.00;100841.09;5006395;28;20033;-60
2023/09/13 05:01:39;;;;;;;65.90;37.05;;;;;;;19.19;100.00;100844.59;4999111;28;20035;-60
2023/09/13 05:04:05;;;;;;;71.97;39.47;;;;;;;19.20;100.00;100850.69;4989518;28;20030;-61
2023/09/13 05:06:30;;;;;;;69.32;40.65;;;;;;;19.23;100.00;100848.78;4990792;28;20027;-61
2023/09/13 05:08:56;;;;;;;75.75;40.83;;;;;;;19.23;100.00;100850.56;4992062;28;20048;-61
2023/09/13 05:11:23;;;;;;;72.22;40.65;;;;;;;19.22;100.00;100854.06;4990760;28;20034;-61
2023/09/13 05:13:49;;;;;;;79.20;41.10;;;;;;;19.22;100.00;100854.94;4999899;28;20064;-61
2023/09/13 05:16:19;;;;;;;71.90;39.53;;;;;;;19.21;100.00;100862.84;5005848;28;20428;-61
2023/09/13 05:18:44;;;;;;;70.50;39.53;;;;;;;19.21;100.00;100855.84;5007776;28;20439;-61
2023/09/13 05:21:10;;;;;;;70.93;38.40;;;;;;;19.21;100.00;100868.09;5004613;28;20022;-61
2023/09/13 05:23:35;;;;;;;69.70;40.58;;;;;;;19.22;100.00;100869.81;5007831;28;20042;-61
2023/09/13 05:26:02;;;;;;;71.13;37.45;;;;;;;19.21;100.00;100863.69;5006413;28;20026;-65
2023/09/13 05:28:31;;;;;;;65.75;37.53;;;;;;;19.19;100.00;100872.56;5006405;28;20041;-65
2023/09/13 05:30:56;;;;;;;72.80;39.58;;;;;;;19.19;100.00;100883.88;5007544;28;20029;-65
2023/09/13 05:33:25;;;;;;;60.00;34.33;;;;;;;19.17;100.00;100877.88;5005940;28;20092;-66
2023/09/13 05:35:50;;;;;;;60.50;32.28;;;;;;;19.14;100.00;100879.75;4998599;28;20043;-65
2023/09/13 05:38:16;;;;;;;51.45;31.38;;;;;;;19.14;100.00;100883.25;5005872;28;20032;-66
2023/09/13 05:40:41;;;;;;;52.10;30.05;;;;;;;19.13;100.00;100886.75;5005971;28;20129;-66
2023/09/13 05:43:06;;;;;;;47.67;29.98;;;;;;;19.12;100.00;100886.84;5005704;28;20057;-66
2023/09/13 05:45:31;;;;;;;44.53;27.85;;;;;;;19.10;100.00;100880.78;4977425;28;20025;-65
2023/09/13 05:47:59;;;;;;;43.60;26.92;;;;;;;19.05;100.00;100894.09;5011023;28;20048;-65
2023/09/13 05:50:25;;;;;;;40.65;26.10;;;;;;;19.01;100.00;100890.75;5012636;28;20026;-66
2023/09/13 05:52:50;;;;;;;37.58;24.92;;;;;;;18.99;100.00;100902.22;5007960;28;20056;-66
2023/09/13 05:55:16;;;;;;;39.10;24.48;;;;;;;18.97;100.00;100906.63;5006234;28;20034;-65
2023/09/13 05:57:41;;;;;;;40.03;25.92;;;;;;;18.96;100.00;100910.19;5005748;28;20072;-66
2023/09/13 06:00:08;;;;;;;37.42;23.98;;;;;;;18.95;100.00;100909.34;5007654;28;20468;-65
2023/09/13 06:02:35;;;;;;;36.92;24.20;;;;;;;18.95;100.00;100905.84;5004915;28;20064;-61
2023/09/13 06:05:01;;;;;;;37.95;24.75;;;;;;;18.96;100.00;100908.44;5005478;28;20038;-61
2023/09/13 06:07:28;;;;;;;32.83;22.45;;;;;;;19.01;100.00;100913.47;5007531;28;20408;-60
2023/09/13 06:09:53;;;;;;;34.45;22.30;;;;;;;19.02;100.00;100920.44;5004423;28;20037;-65
2023/09/13 06:12:18;;;;;;;36.50;22.40;;;;;;;19.03;100.00;100911.63;5005883;28;20549;-66
2023/09/13 06:14:45;;;;;;;39.60;22.48;;;;;;;19.07;100.00;100913.22;5003246;28;20062;-66
2023/09/13 06:17:10;;;;;;;34.17;22.85;;;;;;;19.10;100.00;100922.72;5007916;28;20095;-66
2023/09/13 06:19:36;;;;;;;34.55;19.95;;;;;;;19.17;100.00;100930.28;5005392;28;20432;-65
2023/09/13 06:22:02;;;;;;;32.83;22.17;;;;;;;19.19;100.00;100923.19;5005043;28;20451;-65
2023/09/13 06:24:27;;;;;;;35.53;22.73;;;;;;;19.18;100.00;100937.22;5005548;28;20034;-66
2023/09/13 06:26:54;;;;;;;32.53;22.38;;;;;;;19.15;100.00;100929.47;5007289;28;20084;-65
2023/09/13 06:29:19;;;;;;;32.50;19.92;;;;;;;19.20;100.00;100932.78;5005339;28;20041;-66
2023/09/13 06:31:47;;;;;;;34.70;22.60;;;;;;;19.21;100.00;100939.69;5005088;28;20113;-65
2023/09/13 06:34:12;;;;;;;32.25;21.77;;;;;;;19.24;100.00;100943.97;4989957;28;20022;-66
2023/09/13 06:36:38;;;;;;;30.80;21.10;;;;;;;19.24;100.00;100942.19;5006368;28;20480;-66
2023/09/13 06:39:03;;;;;;;34.40;20.92;;;;;;;19.23;100.00;100937.91;5005580;28;20095;-66
2023/09/13 06:41:29;;;;;;;29.02;20.60;;;;;;;19.23;100.00;100945.75;4974871;28;20029;-66
2023/09/13 06:43:54;;;;;;;32.92;21.20;;;;;;;19.26;100.00;100948.25;4998985;28;20444;-66
2023/09/13 06:46:20;;;;;;;31.80;21.20;;;;;;;19.25;100.00;100948.28;5001207;28;20030;-65
2023/09/13 06:48:45;;;;;;;27.75;20.27;;;;;;;19.27;100.00;100952.56;4989287;28;20072;-66
2023/09/13 06:51:10;;;;;;;29.40;20.02;;;;;;;19.27;100.00;100956.94;5005396;28;20060;-60
2023/09/13 06:53:36;;;;;;;29.50;20.05;;;;;;;19.33;100.00;100956.69;5005057;28;20088;-59
2023/09/13 06:56:02;;;;;;;27.30;19.52;;;;;;;19.38;100.00;100965.25;5004787;28;20058;-60
2023/09/13 06:58:27;;;;;;;29.10;19.48;;;;;;;19.41;100.00;100960.69;5005063;28;20116;-60
2023/09/13 07:00:52;;;;;;;28.30;19.00;;;;;;;19.46;100.00;100969.25;5005029;28;20126;-59
2023/09/13 07:03:19;;;;;;;25.95;17.95;;;;;;;19.48;99.73;100964.78;5007422;28;20018;-59
2023/09/13 07:05:44;;;;;;;29.42;18.35;;;;;;;19.46;98.59;100969.25;5007453;28;20030;-59
2023/09/13 07:08:10;;;;;;;24.48;17.55;;;;;;;19.52;98.60;100971.63;5007339;28;20109;-59
2023/09/13 07:10:35;;;;;;;28.00;19.05;;;;;;;19.59;98.90;100966.97;5004260;28;20121;-59
2023/09/13 07:13:02;;;;;;;27.95;18.20;;;;;;;19.68;98.44;100977.03;5004682;28;20038;-61
2023/09/13 07:15:28;;;;;;;24.38;17.60;;;;;;;19.73;97.41;100974.25;5005678;28;20037;-61
2023/09/13 07:17:53;;;;;;;24.58;17.90;;;;;;;19.75;97.05;100977.63;5004065;28;20033;-60
2023/09/13 07:20:19;;;;;;;28.92;17.75;;;;;;;19.80;96.69;100981.81;5002765;28;20041;-61
2023/09/13 07:22:44;;;;;;;24.10;17.25;;;;;;;19.83;95.88;100983.47;5005906;28;20562;-61
2023/09/13 07:25:10;;;;;;;22.50;16.50;;;;;;;19.88;96.59;100986.75;4989883;28;20026;-61
2023/09/13 07:27:35;;;;;;;23.70;16.25;;;;;;;19.89;96.26;100981.41;5006936;28;20022;-65
2023/09/13 07:30:07;;;;;;;23.90;16.55;;;;;;;19.87;96.35;100985.03;5004085;28;20499;-65
2023/09/13 07:32:34;;;;;;;29.92;17.38;;;;;;;19.83;96.95;100978.22;5006094;28;20036;-65
2023/09/13 07:34:59;;;;;;;28.15;17.23;;;;;;;19.77;96.98;100983.69;5010080;28;20048;-65
2023/09/13 07:37:27;;;;;;;24.60;15.88;;;;;;;19.74;97.21;100991.69;5003923;28;20030;-60
2023/09/13 07:39:52;;;;;;;20.42;14.43;;;;;;;19.77;98.21;100997.63;5008202;28;20030;-60
2023/09/13 07:42:17;;;;;;;24.35;15.40;;;;;;;19.78;98.34;100996.72;5006596;28;20033;-60
2023/09/13 07:44:43;;;;;;;18.88;14.85;;;;;;;19.80;96.96;100992.28;5010336;28;20117;-61
2023/09/13 07:47:08;;;;;;;20.77;14.65;;;;;;;19.89;97.39;101002.41;5009280;28;20125;-61
2023/09/13 07:49:33;;;;;;;21.40;15.15;;;;;;;19.97;96.87;101005.56;5005231;28;20039;-61
2023/09/13 07:51:59;;;;;;;24.02;15.88;;;;;;;19.94;95.65;101007.47;5007639;28;20054;-61
2023/09/13 07:54:25;;;;;;;19.42;14.07;;;;;;;19.97;96.63;101018.69;5008533;28;20054;-61
2023/09/13 07:56:50;;;;;;;19.75;13.70;;;;;;;19.96;95.66;101016.97;5009718;28;20082;-61
2023/09/13 07:59:17;;;;;;;22.05;15.70;;;;;;;19.95;95.83;101015.25;5008005;28;20046;-61
2023/09/13 08:01:42;;;;;;;23.63;15.88;;;;;;;19.90;96.82;101019.00;5009388;28;20050;-61
2023/09/13 08:04:08;;;;;;;21.77;14.82;;;;;;;19.87;96.37;101021.75;4992702;28;20423;-60
2023/09/13 08:06:33;;;;;;;26.33;15.52;;;;;;;19.82;96.81;101028.97;5010349;28;20028;-61
2023/09/13 08:08:59;;;;;;;24.73;15.70;;;;;;;19.78;97.09;101037.84;5007636;28;20042;-60
2023/09/13 08:11:24;;;;;;;22.15;16.15;;;;;;;19.67;96.70;101040.06;5007740;28;20492;-61
2023/09/13 08:13:49;;;;;;;22.52;16.40;;;;;;;19.67;98.14;101042.69;5007687;28;20038;-61
2023/09/13 08:16:15;;;;;;;24.30;15.40;;;;;;;19.66;98.21;101044.44;4989925;28;20630;-61
2023/09/13 08:18:40;;;;;;;27.40;17.00;;;;;;;19.63;98.02;101050.69;4990868;28;20025;-61
2023/09/13 08:21:06;;;;;;;22.65;15.98;;;;;;;19.64;98.07;101059.41;5006702;28;20041;-61
2023/09/13 08:23:31;;;;;;;27.35;16.00;;;;;;;19.66;98.21;101052.31;4992219;28;20481;-60
2023/09/13 08:25:57;;;;;;;23.05;15.38;;;;;;;19.71;98.53;101054.78;5007391;28;20046;-61
2023/09/13 08:28:23;;;;;;;22.75;15.82;;;;;;;19.73;98.38;101056.41;5007451;28;20026;-65
2023/09/13 08:30:49;;;;;;;23.52;16.02;;;;;;;19.74;97.69;101062.50;5009057;28;20026;-65
2023/09/13 08:33:16;;;;;;;20.60;14.05;;;;;;;19.82;98.19;101061.31;4994035;28;20014;-65
2023/09/13 08:35:41;;;;;;;23.73;15.93;;;;;;;19.98;97.94;101067.59;5009040;28;20129;-65
2023/09/13 08:38:07;;;;;;;25.42;16.05;;;;;;;20.04;95.13;101066.47;5008214;28;20034;-65
2023/09/13 08:40:32;;;;;;;21.85;15.25;;;;;;;20.16;95.07;101073.84;4991904;28;20108;-66
2023/09/13 08:42:58;;;;;;;23.25;16.27;;;;;;;20.22;95.45;101070.09;5005237;28;20034;-65
2023/09/13 08:45:24;;;;;;;22.05;15.13;;;;;;;20.29;95.72;101068.91;5005988;28;20044;-61
2023/09/13 08:47:52;;;;;;;16.98;13.73;;;;;;;20.39;95.15;101072.88;5008524;28;20061;-61
2023/09/13 08:50:23;;;;;;;17.58;14.07;;;;;;;20.48;94.81;101075.09;5004941;28;20450;-61
2023/09/13 08:52:50;;;;;;;24.60;15.30;;;;;;;20.64;93.42;101073.47;5009484;28;20448;-61
2023/09/13 08:55:17;;;;;;;23.92;15.25;;;;;;;20.87;92.99;101081.19;5006954;28;20081;-61
2023/09/13 08:57:43;;;;;;;22.58;13.75;;;;;;;20.96;91.17;101086.03;5006850;28;20484;-61
2023/09/13 09:00:09;;;;;;;17.70;13.52;;;;;;;21.00;90.02;101074.47;5009751;28;20068;-61
2023/09/13 09:02:35;;;;;;;18.15;13.43;;;;;;;21.14;90.40;101090.44;5005780;28;20034;-61
2023/09/13 09:05:04;;;;;;;22.23;16.33;;;;;;;21.16;88.90;101088.59;4991983;28;20038;-60
2023/09/13 09:07:30;;;;;;;19.50;13.77;;;;;;;21.13;88.39;101091.38;5009213;28;20117;-61
2023/09/13 09:09:58;;;;;;;21.40;13.50;;;;;;;21.18;88.99;101097.25;5009708;28;20034;-60
2023/09/13 09:12:24;;;;;;;25.70;13.80;;;;;;;21.18;88.33;101096.41;5007038;28;20026;-65
2023/09/13 09:14:52;;;;;;;20.90;13.98;;;;;;;21.16;87.44;101093.00;5007888;28;20041;-65
2023/09/13 09:17:23;;;;;;;20.33;13.95;;;;;;;21.04;87.22;101089.19;5005840;28;20026;-65
2023/09/13 09:19:49;;;;;;;16.45;12.35;;;;;;;21.14;88.03;101097.47;4996503;28;20057;-65
2023/09/13 09:22:16;;;;;;;18.48;13.30;;;;;;;21.24;88.05;101098.75;4991610;28;20112;-65
2023/09/13 09:24:42;;;;;;;19.30;12.18;;;;;;;21.37;87.81;101096.41;5006323;28;20076;-65
2023/09/13 09:27:07;;;;;;;18.58;11.75;;;;;;;21.40;87.22;101101.50;5008706;28;20476;-66
2023/09/13 09:29:39;;;;;;;17.65;12.48;;;;;;;21.41;86.67;101095.31;5006299;28;20056;-65
2023/09/13 09:32:08;;;;;;;17.42;12.65;;;;;;;21.43;85.49;101101.38;5005909;28;20042;-66
2023/09/13 09:34:37;;;;;;;16.20;11.15;;;;;;;21.42;85.19;101102.28;5006798;28;20039;-66
2023/09/13 09:37:04;;;;;;;19.58;12.90;;;;;;;21.31;84.47;101094.06;4990907;28;20038;-65
2023/09/13 09:39:30;;;;;;;20.88;12.75;;;;;;;21.40;85.19;101106.78;5007748;28;20045;-66
2023/09/13 09:41:59;;;;;;;18.13;12.60;;;;;;;21.33;83.92;101100.94;5005260;28;20060;-65
2023/09/13 09:44:27;;;;;;;16.73;12.18;;;;;;;21.29;83.91;101104.63;5005239;28;20061;-65
2023/09/13 09:46:53;;;;;;;14.05;11.32;;;;;;;21.40;83.54;101102.38;5008424;28;20626;-65
2023/09/13 09:49:18;;;;;;;18.75;12.45;;;;;;;21.40;82.48;101104.16;5004565;28;20109;-66
2023/09/13 09:51:44;;;;;;;19.23;11.90;;;;;;;21.45;83.53;101108.25;5007298;28;20496;-65
2023/09/13 09:54:10;;;;;;;13.90;10.80;;;;;;;21.49;83.19;101112.44;5006014;28;20021;-66
2023/09/13 09:56:35;;;;;;;15.57;10.85;;;;;;;21.53;82.28;101102.63;5008037;28;20034;-66
2023/09/13 09:59:01;;;;;;;14.52;10.77;;;;;;;21.64;82.02;101108.25;5004246;28;20030;-66
2023/09/13 10:01:27;;;;;;;14.40;10.70;;;;;;;21.74;81.42;101101.59;5007941;28;20088;-65
2023/09/13 10:03:58;;;;;;;14.80;10.60;;;;;;;21.82;81.02;101098.63;5005593;28;20030;-65
2023/09/13 10:06:24;;;;;;;14.73;9.65;;;;;;;21.87;80.44;101102.72;5010023;28;20053;-65
2023/09/13 10:08:49;;;;;;;12.88;9.50;;;;;;;21.99;81.35;101104.75;4990618;28;20128;-61
2023/09/13 10:11:21;;;;;;;15.13;10.65;;;;;;;21.93;80.07;101104.19;5005305;28;20045;-66
2023/09/13 10:13:47;;;;;;;12.20;9.35;;;;;;;21.97;80.09;101098.69;5003488;28;20034;-65
2023/09/13 10:16:14;;;;;;;12.48;10.15;;;;;;;22.09;80.42;101115.63;5005819;28;20149;-66
2023/09/13 10:18:51;;;;;;;17.40;9.88;;;;;;;22.33;79.74;101104.72;5006972;28;20028;-65
2023/09/13 10:21:27;;;;;;;14.82;9.27;;;;;;;22.42;78.98;101100.78;4988752;28;20018;-66
2023/09/13 10:24:04;;;;;;;17.30;9.00;;;;;;;22.43;77.83;101099.00;5007627;28;20034;-65
2023/09/13 10:26:31;;;;;;;11.45;8.10;;;;;;;22.63;76.59;101093.56;5008055;28;20053;-65
2023/09/13 10:29:11;;;;;;;10.77;8.30;;;;;;;22.88;75.97;101099.22;5005063;28;20306;-66
2023/09/13 10:31:43;;;;;;;11.88;8.80;;;;;;;22.92;73.90;101089.38;5003094;28;20034;-66
2023/09/13 10:34:15;;;;;;;9.25;7.82;;;;;;;23.02;73.30;101078.22;4990621;28;20041;-65
2023/09/13 10:36:47;;;;;;;12.30;8.00;;;;;;;22.83;73.96;101093.34;5006402;28;20017;-60
2023/09/13 10:39:17;;;;;;;10.68;7.35;;;;;;;22.99;72.49;101070.50;5005833;28;20033;-60
2023/09/13 10:41:57;;;;;;;11.93;7.03;;;;;;;23.07;72.97;101084.09;5005315;28;20088;-60
2023/09/13 10:44:23;;;;;;;9.73;6.22;;;;;;;23.13;71.42;101069.72;5004341;28;20030;-60
2023/09/13 10:46:49;;;;;;;11.35;7.13;;;;;;;23.27;70.88;101049.56;5006641;28;20034;-60
2023/09/13 10:49:15;;;;;;;9.20;6.20;;;;;;;23.57;71.33;101062.00;5004015;28;20092;-60
2023/09/13 10:51:41;;;;;;;7.72;5.43;;;;;;;23.86;70.35;101050.59;5007864;28;20117;-60
2023/09/13 10:54:08;;;;;;;8.40;5.10;;;;;;;24.10;69.97;101045.69;5005796;28;20397;-60
2023/09/13 10:56:34;;;;;;;10.52;6.00;;;;;;;23.91;69.84;101057.31;5005614;28;20591;-59
2023/09/13 10:59:00;;;;;;;11.57;6.68;;;;;;;23.55;69.70;101063.84;5003912;28;20044;-60
2023/09/13 11:01:28;;;;;;;11.73;7.32;;;;;;;23.20;71.24;101086.94;5004173;28;20485;-60